createdAt,value
2023-05-03T00:00:18.115Z,51.051731
2023-05-03T00:01:18.085Z,51.051640
2023-05-03T00:02:19.143Z,51.051685
2023-05-03T00:03:18.098Z,51.051693
2023-05-03T00:04:18.085Z,51.051666
2023-05-03T00:05:18.109Z,51.051651
2023-05-03T00:06:18.075Z,51.051651
2023-05-03T00:07:18.063Z,51.051632
2023-05-03T00:08:18.128Z,51.051651
2023-05-03T00:09:18.055Z,51.051643
2023-05-03T00:10:18.022Z,51.051685
2023-05-03T00:11:18.030Z,51.051651
2023-05-03T00:12:18.028Z,51.051651
2023-05-03T00:13:18.010Z,51.051685
2023-05-03T00:14:18.028Z,51.051662
2023-05-03T00:15:18.010Z,51.051643
2023-05-03T00:16:18.004Z,51.051662
2023-05-03T00:17:17.990Z,51.051655
2023-05-03T00:18:17.995Z,51.051647
2023-05-03T00:19:28.110Z,51.051670
2023-05-03T00:20:19.971Z,51.051701
2023-05-03T00:21:17.980Z,51.051697
2023-05-03T00:22:17.950Z,51.051674
2023-05-03T00:23:17.952Z,51.051685
2023-05-03T00:24:17.969Z,51.051670
2023-05-03T00:25:17.939Z,51.051682
2023-05-03T00:26:17.935Z,51.051682
2023-05-03T00:27:17.918Z,51.051655
2023-05-03T00:28:18.156Z,51.051655
2023-05-03T00:29:17.930Z,51.051659
2023-05-03T00:30:18.143Z,51.051693
2023-05-03T00:31:17.935Z,51.051701
2023-05-03T00:32:17.899Z,51.051743
2023-05-03T00:33:17.936Z,51.051693
2023-05-03T00:34:17.898Z,51.051682
2023-05-03T00:35:17.882Z,51.051685
2023-05-03T00:36:17.885Z,51.051678
2023-05-03T00:37:17.875Z,51.051704
2023-05-03T00:38:17.854Z,51.051666
2023-05-03T00:39:18.145Z,51.051697
2023-05-03T00:40:17.835Z,51.051674
2023-05-03T00:41:17.823Z,51.051678
2023-05-03T00:42:18.907Z,51.051704
2023-05-03T00:43:17.814Z,51.051697
2023-05-03T00:44:17.842Z,51.051693
2023-05-03T00:45:17.805Z,51.051682
2023-05-03T00:46:17.906Z,51.051662
2023-05-03T00:47:17.880Z,51.051720
2023-05-03T00:48:17.782Z,51.051674
2023-05-03T00:49:17.794Z,51.051670
2023-05-03T00:50:17.786Z,51.051662
2023-05-03T00:51:17.777Z,51.051682
2023-05-03T00:52:17.760Z,51.051674
2023-05-03T00:53:17.765Z,51.051666
2023-05-03T00:54:17.780Z,51.051746
2023-05-03T00:55:17.744Z,51.051720
2023-05-03T00:56:17.763Z,51.051723
2023-05-03T00:57:17.730Z,51.051735
2023-05-03T00:58:17.724Z,51.051731
2023-05-03T00:59:17.750Z,51.051712
2023-05-03T01:00:17.724Z,51.051716
2023-05-03T01:01:17.744Z,51.051750
2023-05-03T01:02:17.698Z,51.051678
2023-05-03T01:03:17.793Z,51.051720
2023-05-03T01:04:17.710Z,51.051716
2023-05-03T01:05:17.708Z,51.051712
2023-05-03T01:06:17.790Z,51.051697
2023-05-03T01:07:17.687Z,51.051708
2023-05-03T01:08:17.671Z,51.051758
2023-05-03T01:09:17.791Z,51.051723
2023-05-03T01:10:17.670Z,51.051704
2023-05-03T01:11:17.667Z,51.051708
2023-05-03T01:12:17.648Z,51.051720
2023-05-03T01:13:17.649Z,51.051670
2023-05-03T01:14:17.649Z,51.051685
2023-05-03T01:15:17.623Z,51.051636
2023-05-03T01:16:17.642Z,51.051685
2023-05-03T01:17:17.621Z,51.051697
2023-05-03T01:18:17.627Z,51.051682
2023-05-03T01:19:17.727Z,51.051674
2023-05-03T01:20:17.608Z,51.051685
2023-05-03T01:21:17.612Z,51.051651
2023-05-03T01:22:17.581Z,51.051674
2023-05-03T01:23:17.568Z,51.051685
2023-05-03T01:24:17.584Z,51.051693
2023-05-03T01:25:17.569Z,51.051682
2023-05-03T01:26:17.559Z,51.051670
2023-05-03T01:27:17.559Z,51.051670
2023-05-03T01:28:17.536Z,51.051693
2023-05-03T01:29:17.557Z,51.051670
2023-05-03T01:30:17.540Z,51.051693
2023-05-03T01:31:17.557Z,51.051708
2023-05-03T01:32:17.521Z,51.051662
2023-05-03T01:33:17.524Z,51.051636
2023-05-03T01:34:17.561Z,51.051682
2023-05-03T01:35:18.096Z,51.051693
2023-05-03T01:36:17.506Z,51.051674
2023-05-03T01:37:17.488Z,51.051666
2023-05-03T01:38:17.497Z,51.051659
2023-05-03T01:39:17.499Z,51.051617
2023-05-03T01:40:17.471Z,51.051666
2023-05-03T01:41:17.481Z,51.051716
2023-05-03T01:42:17.467Z,51.051682
2023-05-03T01:43:17.680Z,51.051685
2023-05-03T01:44:17.463Z,51.051685
2023-05-03T01:45:17.631Z,51.051662
2023-05-03T01:46:17.578Z,51.051701
2023-05-03T01:47:17.490Z,51.051662
2023-05-03T01:48:17.455Z,51.051640
2023-05-03T01:49:17.516Z,51.051701
2023-05-03T01:50:17.529Z,51.051697
2023-05-03T01:51:18.019Z,51.051685
2023-05-03T01:52:17.447Z,51.051682
2023-05-03T01:53:17.631Z,51.051666
2023-05-03T01:54:17.422Z,51.051689
2023-05-03T01:55:17.473Z,51.051712
2023-05-03T01:56:17.480Z,51.051670
2023-05-03T01:57:17.509Z,51.051697
2023-05-03T01:58:17.409Z,51.051697
2023-05-03T01:59:17.493Z,51.051666
2023-05-03T02:00:17.483Z,51.051682
2023-05-03T02:01:17.403Z,51.051636
2023-05-03T02:02:17.336Z,51.051682
2023-05-03T02:03:17.336Z,51.051712
2023-05-03T02:04:18.470Z,51.051693
2023-05-03T02:05:17.680Z,51.051697
2023-05-03T02:06:17.339Z,51.051689
2023-05-03T02:07:17.312Z,51.051704
2023-05-03T02:08:17.307Z,51.051693
2023-05-03T02:09:17.329Z,51.051685
2023-05-03T02:10:17.293Z,51.051693
2023-05-03T02:11:17.284Z,51.051685
2023-05-03T02:12:17.330Z,51.051708
2023-05-03T02:13:17.307Z,51.051651
2023-05-03T02:14:17.284Z,51.051678
2023-05-03T02:15:17.268Z,51.051708
2023-05-03T02:16:17.289Z,51.051693
2023-05-03T02:17:17.313Z,51.051701
2023-05-03T02:18:17.260Z,51.051659
2023-05-03T02:19:18.052Z,51.051682
2023-05-03T02:20:17.268Z,51.051666
2023-05-03T02:21:17.225Z,51.051666
2023-05-03T02:22:17.370Z,51.051701
2023-05-03T02:23:17.306Z,51.051689
2023-05-03T02:24:17.213Z,51.051739
2023-05-03T02:25:17.200Z,51.051701
2023-05-03T02:26:17.184Z,51.051788
2023-05-03T02:27:17.198Z,51.051785
2023-05-03T02:28:17.187Z,51.051754
2023-05-03T02:29:17.220Z,51.051731
2023-05-03T02:30:18.045Z,51.051712
2023-05-03T02:31:17.350Z,51.051723
2023-05-03T02:32:17.233Z,51.051796
2023-05-03T02:33:17.184Z,51.051804
2023-05-03T02:34:17.609Z,51.051693
2023-05-03T02:35:17.185Z,51.051678
2023-05-03T02:36:18.055Z,51.051647
2023-05-03T02:37:17.122Z,51.051750
2023-05-03T02:38:17.117Z,51.051731
2023-05-03T02:39:17.135Z,51.051651
2023-05-03T02:40:17.113Z,51.051617
2023-05-03T02:41:17.304Z,51.051628
2023-05-03T02:42:17.230Z,51.051693
2023-05-03T02:43:17.130Z,51.051704
2023-05-03T02:44:17.204Z,51.051670
2023-05-03T02:45:17.098Z,51.051685
2023-05-03T02:46:17.325Z,51.051704
2023-05-03T02:47:17.151Z,51.051628
2023-05-03T02:48:17.136Z,51.051643
2023-05-03T02:49:17.108Z,51.051678
2023-05-03T02:50:17.047Z,51.051670
2023-05-03T02:51:17.029Z,51.051659
2023-05-03T02:52:17.026Z,51.051651
2023-05-03T02:53:17.036Z,51.051640
2023-05-03T02:54:17.038Z,51.051655
2023-05-03T02:55:17.011Z,51.051674
2023-05-03T02:56:17.002Z,51.051640
2023-05-03T02:57:17.000Z,51.051647
2023-05-03T02:58:16.984Z,51.051632
2023-05-03T02:59:17.012Z,51.051643
2023-05-03T03:00:17.236Z,51.051655
2023-05-03T03:01:17.064Z,51.051640
2023-05-03T03:02:17.224Z,51.051659
2023-05-03T03:03:17.236Z,51.051643
2023-05-03T03:04:17.011Z,51.051640
2023-05-03T03:05:17.143Z,51.051628
2023-05-03T03:06:17.010Z,51.051632
2023-05-03T03:07:17.073Z,51.051628
2023-05-03T03:08:16.984Z,51.051632
2023-05-03T03:09:16.947Z,51.051651
2023-05-03T03:10:17.135Z,51.051670
2023-05-03T03:11:16.901Z,51.051632
2023-05-03T03:12:16.896Z,51.051666
2023-05-03T03:13:16.896Z,51.051662
2023-05-03T03:14:16.918Z,51.051670
2023-05-03T03:15:16.896Z,51.051640
2023-05-03T03:16:16.909Z,51.051640
2023-05-03T03:17:16.935Z,51.051662
2023-05-03T03:18:17.747Z,51.051678
2023-05-03T03:19:17.865Z,51.051617
2023-05-03T03:20:16.847Z,51.051620
2023-05-03T03:21:16.840Z,51.051624
2023-05-03T03:22:16.828Z,51.051617
2023-05-03T03:23:16.857Z,51.051590
2023-05-03T03:24:17.822Z,51.051609
2023-05-03T03:25:16.804Z,51.051609
2023-05-03T03:26:16.819Z,51.051571
2023-05-03T03:27:16.812Z,51.051640
2023-05-03T03:28:16.870Z,51.051701
2023-05-03T03:29:17.530Z,51.051640
2023-05-03T03:30:16.782Z,51.051575
2023-05-03T03:31:18.087Z,51.051613
2023-05-03T03:32:16.772Z,51.051643
2023-05-03T03:33:16.788Z,51.051651
2023-05-03T03:34:16.776Z,51.051609
2023-05-03T03:35:16.750Z,51.051643
2023-05-03T03:36:16.762Z,51.051716
2023-05-03T03:37:16.740Z,51.051655
2023-05-03T03:38:16.731Z,51.051628
2023-05-03T03:39:16.737Z,51.051674
2023-05-03T03:40:16.720Z,51.051674
2023-05-03T03:41:16.737Z,51.051640
2023-05-03T03:42:18.007Z,51.051655
2023-05-03T03:43:16.719Z,51.051628
2023-05-03T03:44:16.742Z,51.051620
2023-05-03T03:45:16.687Z,51.051655
2023-05-03T03:46:16.741Z,51.051659
2023-05-03T03:47:16.752Z,51.051659
2023-05-03T03:48:16.731Z,51.051674
2023-05-03T03:49:16.684Z,51.051662
2023-05-03T03:50:16.659Z,51.051678
2023-05-03T03:51:16.653Z,51.051674
2023-05-03T03:52:16.648Z,51.051662
2023-05-03T03:53:16.643Z,51.051674
2023-05-03T03:54:16.657Z,51.051712
2023-05-03T03:55:16.640Z,51.051712
2023-05-03T03:56:16.624Z,51.051632
2023-05-03T03:57:16.636Z,51.051594
2023-05-03T03:58:16.616Z,51.051601
2023-05-03T03:59:16.643Z,51.051640
2023-05-03T04:00:16.595Z,51.051640
2023-05-03T04:01:16.614Z,51.051632
2023-05-03T04:02:16.646Z,51.051640
2023-05-03T04:03:16.726Z,51.051640
2023-05-03T04:04:16.808Z,51.051632
2023-05-03T04:05:16.580Z,51.051647
2023-05-03T04:06:16.589Z,51.051636
2023-05-03T04:07:16.576Z,51.051605
2023-05-03T04:08:16.561Z,51.051662
2023-05-03T04:09:16.570Z,51.051689
2023-05-03T04:10:16.555Z,51.051735
2023-05-03T04:11:16.543Z,51.051708
2023-05-03T04:12:16.526Z,51.051640
2023-05-03T04:13:16.526Z,51.051628
2023-05-03T04:14:16.539Z,51.051617
2023-05-03T04:15:16.530Z,51.051620
2023-05-03T04:16:16.510Z,51.051674
2023-05-03T04:17:16.502Z,51.051670
2023-05-03T04:18:16.489Z,51.051659
2023-05-03T04:19:16.741Z,51.051640
2023-05-03T04:20:16.502Z,51.051628
2023-05-03T04:21:16.489Z,51.051640
2023-05-03T04:22:16.469Z,51.051670
2023-05-03T04:23:16.452Z,51.051666
2023-05-03T04:24:16.497Z,51.051662
2023-05-03T04:25:16.448Z,51.051659
2023-05-03T04:26:30.029Z,51.051620
2023-05-03T04:27:18.437Z,51.051628
2023-05-03T04:28:16.440Z,51.051647
2023-05-03T04:29:16.461Z,51.051655
2023-05-03T04:30:16.592Z,51.051632
2023-05-03T04:31:16.676Z,51.051605
2023-05-03T04:32:16.421Z,51.051655
2023-05-03T04:33:16.470Z,51.051685
2023-05-03T04:34:16.447Z,51.051628
2023-05-03T04:35:16.408Z,51.051662
2023-05-03T04:36:16.396Z,51.051613
2023-05-03T04:37:16.583Z,51.051655
2023-05-03T04:38:16.387Z,51.051655
2023-05-03T04:39:16.368Z,51.051651
2023-05-03T04:40:16.359Z,51.051636
2023-05-03T04:41:16.366Z,51.051662
2023-05-03T04:42:16.360Z,51.051735
2023-05-03T04:43:16.615Z,51.051678
2023-05-03T04:44:16.402Z,51.051678
2023-05-03T04:45:16.432Z,51.051655
2023-05-03T04:46:16.350Z,51.051643
2023-05-03T04:47:16.415Z,51.051640
2023-05-03T04:48:16.484Z,51.051655
2023-05-03T04:49:16.297Z,51.051647
2023-05-03T04:50:16.336Z,51.051666
2023-05-03T04:51:16.296Z,51.051682
2023-05-03T04:52:16.363Z,51.051651
2023-05-03T04:53:16.323Z,51.051662
2023-05-03T04:54:16.429Z,51.051659
2023-05-03T04:55:16.567Z,51.051651
2023-05-03T04:56:16.254Z,51.051704
2023-05-03T04:57:17.016Z,51.051723
2023-05-03T04:58:17.024Z,51.051628
2023-05-03T04:59:16.420Z,51.051643
2023-05-03T05:00:16.531Z,51.051647
2023-05-03T05:01:16.567Z,51.051659
2023-05-03T05:02:16.340Z,51.051636
2023-05-03T05:03:16.393Z,51.051605
2023-05-03T05:04:16.567Z,51.051651
2023-05-03T05:05:17.969Z,51.051655
2023-05-03T05:06:16.504Z,51.051662
2023-05-03T05:07:17.028Z,51.051636
2023-05-03T05:08:17.000Z,51.051613
2023-05-03T05:09:16.295Z,51.051647
2023-05-03T05:10:16.320Z,51.051636
2023-05-03T05:11:16.463Z,51.051647
2023-05-03T05:12:16.421Z,51.051659
2023-05-03T05:13:16.459Z,51.051624
2023-05-03T05:14:16.627Z,51.051643
2023-05-03T05:15:16.232Z,51.051620
2023-05-03T05:16:17.116Z,51.051632
2023-05-03T05:17:16.591Z,51.051666
2023-05-03T05:18:16.301Z,51.051678
2023-05-03T05:19:17.006Z,51.051620
2023-05-03T05:20:17.086Z,51.051647
2023-05-03T05:21:17.097Z,51.051670
2023-05-03T05:22:16.391Z,51.051647
2023-05-03T05:23:17.023Z,51.051682
2023-05-03T05:24:16.270Z,51.051613
2023-05-03T05:25:16.320Z,51.051632
2023-05-03T05:26:16.218Z,51.051655
2023-05-03T05:27:16.987Z,51.051666
2023-05-03T05:28:16.280Z,51.051682
2023-05-03T05:29:16.223Z,51.051647
2023-05-03T05:30:16.457Z,51.051655
2023-05-03T05:31:16.281Z,51.051647
2023-05-03T05:32:16.396Z,51.051655
2023-05-03T05:33:18.392Z,51.051659
2023-05-03T05:34:17.054Z,51.051643
2023-05-03T05:35:16.044Z,51.051628
2023-05-03T05:36:16.259Z,51.051620
2023-05-03T05:37:16.000Z,51.051620
2023-05-03T05:38:15.984Z,51.051582
2023-05-03T05:39:16.028Z,51.051674
2023-05-03T05:40:16.017Z,51.051666
2023-05-03T05:41:15.997Z,51.051567
2023-05-03T05:42:15.961Z,51.051575
2023-05-03T05:43:15.964Z,51.051575
2023-05-03T05:44:15.972Z,51.051678
2023-05-03T05:45:15.977Z,51.051662
2023-05-03T05:46:15.977Z,51.051628
2023-05-03T05:47:15.985Z,51.051628
2023-05-03T05:48:15.969Z,51.051609
2023-05-03T05:49:15.949Z,51.051643
2023-05-03T05:50:18.509Z,51.051701
2023-05-03T05:51:17.001Z,51.051620
2023-05-03T05:52:15.905Z,51.051647
2023-05-03T05:53:15.907Z,51.051678
2023-05-03T05:54:15.913Z,51.051674
2023-05-03T05:55:15.983Z,51.051685
2023-05-03T05:56:15.886Z,51.051662
2023-05-03T05:57:15.873Z,51.051682
2023-05-03T05:58:16.020Z,51.051693
2023-05-03T05:59:15.877Z,51.051666
2023-05-03T06:00:15.849Z,51.051689
2023-05-03T06:01:15.852Z,51.051617
2023-05-03T06:02:15.852Z,51.051624
2023-05-03T06:03:15.841Z,51.051620
2023-05-03T06:04:15.827Z,51.051647
2023-05-03T06:05:15.882Z,51.051712
2023-05-03T06:06:15.808Z,51.051647
2023-05-03T06:07:15.797Z,51.051640
2023-05-03T06:08:15.801Z,51.051643
2023-05-03T06:09:24.038Z,51.051601
2023-05-03T06:10:17.784Z,51.051624
2023-05-03T06:11:15.777Z,51.051601
2023-05-03T06:12:15.765Z,51.051598
2023-05-03T06:13:15.764Z,51.051632
2023-05-03T06:14:15.766Z,51.051659
2023-05-03T06:15:15.729Z,51.051678
2023-05-03T06:16:15.733Z,51.051685
2023-05-03T06:17:15.805Z,51.051685
2023-05-03T06:18:15.787Z,51.051666
2023-05-03T06:19:15.724Z,51.051693
2023-05-03T06:20:15.698Z,51.051685
2023-05-03T06:21:15.700Z,51.051659
2023-05-03T06:22:15.681Z,51.051662
2023-05-03T06:23:15.698Z,51.051659
2023-05-03T06:24:15.693Z,51.051743
2023-05-03T06:25:17.702Z,51.051678
2023-05-03T06:26:15.667Z,51.051666
2023-05-03T06:27:15.662Z,51.051651
2023-05-03T06:28:15.640Z,51.051678
2023-05-03T06:29:15.660Z,51.051682
2023-05-03T06:30:15.634Z,51.051666
2023-05-03T06:31:15.663Z,51.051624
2023-05-03T06:32:15.613Z,51.051678
2023-05-03T06:33:15.610Z,51.051666
2023-05-03T06:34:15.608Z,51.051666
2023-05-03T06:35:15.599Z,51.051647
2023-05-03T06:36:15.587Z,51.051662
2023-05-03T06:37:15.579Z,51.051640
2023-05-03T06:38:15.577Z,51.051689
2023-05-03T06:39:15.598Z,51.051666
2023-05-03T06:40:15.578Z,51.051666
2023-05-03T06:41:15.576Z,51.051678
2023-05-03T06:42:15.558Z,51.051651
2023-05-03T06:43:15.528Z,51.051655
2023-05-03T06:44:15.578Z,51.051620
2023-05-03T06:45:15.523Z,51.051620
2023-05-03T06:46:16.707Z,51.051636
2023-05-03T06:47:15.520Z,51.051655
2023-05-03T06:48:15.635Z,51.051651
2023-05-03T06:49:15.664Z,51.051643
2023-05-03T06:50:15.508Z,51.051647
2023-05-03T06:51:15.477Z,51.051651
2023-05-03T06:52:15.462Z,51.051674
2023-05-03T06:53:15.459Z,51.051659
2023-05-03T06:54:15.494Z,51.051666
2023-05-03T06:55:15.448Z,51.051670
2023-05-03T06:56:15.518Z,51.051682
2023-05-03T06:57:15.430Z,51.051678
2023-05-03T06:58:15.421Z,51.051693
2023-05-03T06:59:15.442Z,51.051682
2023-05-03T07:00:16.367Z,51.051643
2023-05-03T07:01:16.334Z,51.051666
2023-05-03T07:02:15.406Z,51.051666
2023-05-03T07:03:16.683Z,51.051682
2023-05-03T07:04:15.456Z,51.051689
2023-05-03T07:05:15.910Z,51.051685
2023-05-03T07:06:15.415Z,51.051682
2023-05-03T07:07:15.458Z,51.051655
2023-05-03T07:08:15.355Z,51.051670
2023-05-03T07:09:16.366Z,51.051678
2023-05-03T07:10:15.376Z,51.051659
2023-05-03T07:11:15.634Z,51.051674
2023-05-03T07:12:15.346Z,51.051674
2023-05-03T07:13:15.394Z,51.051655
2023-05-03T07:14:15.354Z,51.051643
2023-05-03T07:15:15.310Z,51.051643
2023-05-03T07:16:15.348Z,51.051640
2023-05-03T07:17:15.295Z,51.051636
2023-05-03T07:18:15.900Z,51.051640
2023-05-03T07:19:15.310Z,51.051605
2023-05-03T07:20:15.275Z,51.051624
2023-05-03T07:21:15.278Z,51.051617
2023-05-03T07:22:15.266Z,51.051613
2023-05-03T07:23:15.357Z,51.051628
2023-05-03T07:24:15.268Z,51.051620
2023-05-03T07:25:15.421Z,51.051647
2023-05-03T07:26:15.351Z,51.051617
2023-05-03T07:27:15.240Z,51.051632
2023-05-03T07:28:15.892Z,51.051624
2023-05-03T07:29:15.349Z,51.051613
2023-05-03T07:30:15.271Z,51.051674
2023-05-03T07:31:15.210Z,51.051617
2023-05-03T07:32:15.204Z,51.051674
2023-05-03T07:33:15.468Z,51.051720
2023-05-03T07:34:15.219Z,51.051643
2023-05-03T07:35:15.886Z,51.051628
2023-05-03T07:36:15.166Z,51.051613
2023-05-03T07:37:15.343Z,51.051628
2023-05-03T07:38:15.230Z,51.051594
2023-05-03T07:39:15.385Z,51.051628
2023-05-03T07:40:15.364Z,51.051617
2023-05-03T07:41:15.132Z,51.051548
2023-05-03T07:42:15.893Z,51.051605
2023-05-03T07:43:15.346Z,51.051601
2023-05-03T07:44:15.143Z,51.051628
2023-05-03T07:45:15.888Z,51.051624
2023-05-03T07:46:15.244Z,51.051651
2023-05-03T07:47:15.218Z,51.051640
2023-05-03T07:48:15.194Z,51.051582
2023-05-03T07:49:15.889Z,51.051613
2023-05-03T07:50:15.454Z,51.051632
2023-05-03T07:51:15.878Z,51.051632
2023-05-03T07:52:15.885Z,51.051605
2023-05-03T07:53:15.888Z,51.051613
2023-05-03T07:54:15.884Z,51.051552
2023-05-03T07:55:16.311Z,51.051620
2023-05-03T07:56:15.888Z,51.051571
2023-05-03T07:57:15.348Z,51.051609
2023-05-03T07:58:15.896Z,51.051624
2023-05-03T07:59:15.406Z,51.051640
2023-05-03T08:00:15.174Z,51.051651
2023-05-03T08:01:15.228Z,51.051613
2023-05-03T08:02:15.526Z,51.051620
2023-05-03T08:03:15.593Z,51.051659
2023-05-03T08:04:16.164Z,51.051682
2023-05-03T08:05:15.291Z,51.051670
2023-05-03T08:06:15.215Z,51.051670
2023-05-03T08:07:14.932Z,51.051647
2023-05-03T08:08:15.233Z,51.051647
2023-05-03T08:09:14.941Z,51.051590
2023-05-03T08:10:15.900Z,51.051624
2023-05-03T08:11:15.237Z,51.051682
2023-05-03T08:12:14.917Z,51.051662
2023-05-03T08:13:15.227Z,51.051674
2023-05-03T08:14:15.307Z,51.051685
2023-05-03T08:15:15.276Z,51.051628
2023-05-03T08:16:14.921Z,51.051689
2023-05-03T08:17:14.889Z,51.051697
2023-05-03T08:18:14.898Z,51.051685
2023-05-03T08:19:14.878Z,51.051701
2023-05-03T08:20:14.875Z,51.051659
2023-05-03T08:21:14.848Z,51.051697
2023-05-03T08:22:14.898Z,51.051685
2023-05-03T08:23:17.390Z,51.051682
2023-05-03T08:24:16.100Z,51.051651
2023-05-03T08:25:15.817Z,51.051655
2023-05-03T08:26:15.149Z,51.051628
2023-05-03T08:27:14.812Z,51.051651
2023-05-03T08:28:14.805Z,51.051655
2023-05-03T08:29:14.830Z,51.051682
2023-05-03T08:30:14.824Z,51.051662
2023-05-03T08:31:14.811Z,51.051666
2023-05-03T08:32:14.763Z,51.051674
2023-05-03T08:33:14.804Z,51.051670
2023-05-03T08:34:14.780Z,51.051643
2023-05-03T08:35:14.757Z,51.051620
2023-05-03T08:36:14.748Z,51.051556
2023-05-03T08:37:14.743Z,51.051628
2023-05-03T08:38:14.768Z,51.051628
2023-05-03T08:39:14.758Z,51.051617
2023-05-03T08:40:14.721Z,51.051620
2023-05-03T08:41:14.730Z,51.051628
2023-05-03T08:42:14.698Z,51.051666
2023-05-03T08:43:14.733Z,51.051685
2023-05-03T08:44:14.787Z,51.051704
2023-05-03T08:45:14.705Z,51.051682
2023-05-03T08:46:14.717Z,51.051582
2023-05-03T08:47:14.734Z,51.051624
2023-05-03T08:48:14.790Z,51.051582
2023-05-03T08:49:14.663Z,51.051563
2023-05-03T08:50:14.675Z,51.051620
2023-05-03T08:51:14.634Z,51.051620
2023-05-03T08:52:14.701Z,51.051655
2023-05-03T08:53:14.661Z,51.051678
2023-05-03T08:54:14.614Z,51.051682
2023-05-03T08:55:14.610Z,51.051682
2023-05-03T08:56:14.605Z,51.051670
2023-05-03T08:57:14.626Z,51.051666
2023-05-03T08:58:14.611Z,51.051678
2023-05-03T08:59:14.579Z,51.051647
2023-05-03T09:00:14.605Z,51.051640
2023-05-03T09:01:14.557Z,51.051624
2023-05-03T09:02:14.640Z,51.051617
2023-05-03T09:03:14.639Z,51.051525
2023-05-03T09:04:14.644Z,51.051605
2023-05-03T09:05:14.551Z,51.051590
2023-05-03T09:06:14.548Z,51.051743
2023-05-03T09:07:14.551Z,51.051605
2023-05-03T09:08:17.280Z,51.051613
2023-05-03T09:09:14.526Z,51.051620
2023-05-03T09:10:14.505Z,51.051563
2023-05-03T09:11:14.509Z,51.051529
2023-05-03T09:12:14.526Z,51.051552
2023-05-03T09:13:14.475Z,51.051605
2023-05-03T09:14:14.567Z,51.051605
2023-05-03T09:15:14.451Z,51.051605
2023-05-03T09:16:14.535Z,51.051601
2023-05-03T09:17:14.459Z,51.051613
2023-05-03T09:18:14.452Z,51.051598
2023-05-03T09:19:14.464Z,51.051594
2023-05-03T09:20:14.442Z,51.051582
2023-05-03T09:21:14.411Z,51.051594
2023-05-03T09:22:14.421Z,51.051609
2023-05-03T09:23:14.442Z,51.051617
2023-05-03T09:24:14.554Z,51.051605
2023-05-03T09:25:14.458Z,51.051628
2023-05-03T09:26:14.389Z,51.051575
2023-05-03T09:27:14.392Z,51.051590
2023-05-03T09:28:14.388Z,51.051620
2023-05-03T09:29:14.436Z,51.051651
2023-05-03T09:30:14.365Z,51.051617
2023-05-03T09:31:14.380Z,51.051647
2023-05-03T09:32:14.439Z,51.051674
2023-05-03T09:33:15.346Z,51.051636
2023-05-03T09:34:14.395Z,51.051609
2023-05-03T09:35:14.327Z,51.051617
2023-05-03T09:36:14.311Z,51.051609
2023-05-03T09:37:14.372Z,51.051651
2023-05-03T09:38:14.333Z,51.051655
2023-05-03T09:39:14.326Z,51.051636
2023-05-03T09:40:14.274Z,51.051617
2023-05-03T09:41:14.292Z,51.051601
2023-05-03T09:42:14.373Z,51.051628
2023-05-03T09:43:14.304Z,51.051617
2023-05-03T09:44:14.292Z,51.051594
2023-05-03T09:45:14.249Z,51.051617
2023-05-03T09:46:14.327Z,51.051613
2023-05-03T09:47:14.248Z,51.051556
2023-05-03T09:48:14.397Z,51.051514
2023-05-03T09:49:15.626Z,51.051632
2023-05-03T09:50:14.226Z,51.051655
2023-05-03T09:51:14.306Z,51.051624
2023-05-03T09:52:14.394Z,51.051640
2023-05-03T09:53:14.214Z,51.051655
2023-05-03T09:54:14.246Z,51.051620
2023-05-03T09:55:14.202Z,51.051628
2023-05-03T09:56:14.194Z,51.051643
2023-05-03T09:57:14.311Z,51.051651
2023-05-03T09:58:14.164Z,51.051640
2023-05-03T09:59:14.296Z,51.051636
2023-05-03T10:00:14.165Z,51.051651
2023-05-03T10:01:14.203Z,51.051632
2023-05-03T10:02:14.149Z,51.051651
2023-05-03T10:03:14.161Z,51.051662
2023-05-03T10:04:14.233Z,51.051643
2023-05-03T10:05:14.137Z,51.051655
2023-05-03T10:06:14.107Z,51.051659
2023-05-03T10:07:14.104Z,51.051655
2023-05-03T10:08:14.128Z,51.051655
2023-05-03T10:09:14.093Z,51.051655
2023-05-03T10:10:14.091Z,51.051651
2023-05-03T10:11:14.070Z,51.051632
2023-05-03T10:12:14.080Z,51.051655
2023-05-03T10:13:14.050Z,51.051620
2023-05-03T10:14:14.078Z,51.051586
2023-05-03T10:15:14.082Z,51.051643
2023-05-03T10:16:14.058Z,51.051662
2023-05-03T10:17:14.026Z,51.051670
2023-05-03T10:18:14.080Z,51.051628
2023-05-03T10:19:14.496Z,51.051624
2023-05-03T10:20:15.251Z,51.051632
2023-05-03T10:21:13.993Z,51.051640
2023-05-03T10:22:14.007Z,51.051651
2023-05-03T10:23:13.998Z,51.051640
2023-05-03T10:24:14.012Z,51.051651
2023-05-03T10:25:15.420Z,51.051643
2023-05-03T10:26:15.268Z,51.051640
2023-05-03T10:27:13.964Z,51.051647
2023-05-03T10:28:13.950Z,51.051620
2023-05-03T10:29:13.961Z,51.051655
2023-05-03T10:30:13.948Z,51.051640
2023-05-03T10:31:13.978Z,51.051605
2023-05-03T10:32:13.924Z,51.051601
2023-05-03T10:33:14.022Z,51.051647
2023-05-03T10:34:13.900Z,51.051651
2023-05-03T10:35:13.932Z,51.051640
2023-05-03T10:36:13.897Z,51.051632
2023-05-03T10:37:13.910Z,51.051651
2023-05-03T10:38:13.892Z,51.051613
2023-05-03T10:39:13.885Z,51.051636
2023-05-03T10:40:14.063Z,51.051640
2023-05-03T10:41:13.856Z,51.051628
2023-05-03T10:42:14.131Z,51.051620
2023-05-03T10:43:13.856Z,51.051613
2023-05-03T10:44:13.837Z,51.051620
2023-05-03T10:45:13.827Z,51.051640
2023-05-03T10:46:13.825Z,51.051632
2023-05-03T10:47:13.830Z,51.051628
2023-05-03T10:48:13.822Z,51.051613
2023-05-03T10:49:13.798Z,51.051628
2023-05-03T10:50:13.805Z,51.051628
2023-05-03T10:51:13.818Z,51.051662
2023-05-03T10:52:13.780Z,51.051647
2023-05-03T10:53:13.999Z,51.051643
2023-05-03T10:54:13.777Z,51.051655
2023-05-03T10:55:13.782Z,51.051659
2023-05-03T10:56:13.781Z,51.051651
2023-05-03T10:57:13.842Z,51.051670
2023-05-03T10:58:13.749Z,51.051655
2023-05-03T10:59:13.717Z,51.051640
2023-05-03T11:00:13.748Z,51.051674
2023-05-03T11:01:14.049Z,51.051659
2023-05-03T11:02:13.695Z,51.051620
2023-05-03T11:03:13.745Z,51.051636
2023-05-03T11:04:13.790Z,51.051651
2023-05-03T11:05:13.885Z,51.051647
2023-05-03T11:06:13.754Z,51.051636
2023-05-03T11:07:13.721Z,51.051674
2023-05-03T11:08:13.652Z,51.051704
2023-05-03T11:09:13.727Z,51.051689
2023-05-03T11:10:13.620Z,51.051662
2023-05-03T11:11:13.640Z,51.051659
2023-05-03T11:12:13.661Z,51.051685
2023-05-03T11:13:13.624Z,51.051674
2023-05-03T11:14:13.692Z,51.051659
2023-05-03T11:15:13.609Z,51.051636
2023-05-03T11:16:13.608Z,51.051632
2023-05-03T11:17:13.597Z,51.051636
2023-05-03T11:18:13.681Z,51.051636
2023-05-03T11:19:13.630Z,51.051651
2023-05-03T11:20:13.555Z,51.051640
2023-05-03T11:21:13.562Z,51.051617
2023-05-03T11:22:13.553Z,51.051609
2023-05-03T11:23:13.552Z,51.051613
2023-05-03T11:24:13.675Z,51.051636